sensor_id;sensor_type;location;lat;lon;timestamp;P1;durP1;ratioP1;P2;durP2;ratioP2
40367;SDS011;26075;43.320;21.920;2023-07-02T00:01:47;9.90;;;6.05;;
40367;SDS011;26075;43.320;21.920;2023-07-02T00:06:49;11.85;;;5.50;;
40367;SDS011;26075;43.320;21.920;2023-07-02T00:11:50;12.27;;;5.43;;
40367;SDS011;26075;43.320;21.920;2023-07-02T00:16:51;8.13;;;5.28;;
40367;SDS011;26075;43.320;21.920;2023-07-02T00:22:08;11.45;;;5.03;;
40367;SDS011;26075;43.320;21.920;2023-07-02T00:27:10;11.27;;;5.25;;
40367;SDS011;26075;43.320;21.920;2023-07-02T00:32:12;15.18;;;6.50;;
40367;SDS011;26075;43.320;21.920;2023-07-02T00:37:13;10.05;;;5.90;;
40367;SDS011;26075;43.320;21.920;2023-07-02T00:48:12;10.48;;;5.75;;
40367;SDS011;26075;43.320;21.920;2023-07-02T00:53:13;12.02;;;5.70;;
40367;SDS011;26075;43.320;21.920;2023-07-02T01:04:11;10.68;;;5.82;;
40367;SDS011;26075;43.320;21.920;2023-07-02T01:09:13;10.32;;;6.22;;
40367;SDS011;26075;43.320;21.920;2023-07-02T01:14:15;10.98;;;5.70;;
40367;SDS011;26075;43.320;21.920;2023-07-02T01:20:03;10.55;;;6.68;;
40367;SDS011;26075;43.320;21.920;2023-07-02T01:24:44;14.90;;;6.18;;
40367;SDS011;26075;43.320;21.920;2023-07-02T01:35:27;11.60;;;5.80;;
40367;SDS011;26075;43.320;21.920;2023-07-02T01:46:25;10.40;;;6.07;;
40367;SDS011;26075;43.320;21.920;2023-07-02T01:57:04;12.20;;;7.85;;
40367;SDS011;26075;43.320;21.920;2023-07-02T02:08:03;10.63;;;6.75;;
40367;SDS011;26075;43.320;21.920;2023-07-02T02:13:09;10.38;;;6.40;;
40367;SDS011;26075;43.320;21.920;2023-07-02T02:18:10;10.38;;;5.93;;
40367;SDS011;26075;43.320;21.920;2023-07-02T02:28:39;12.75;;;6.03;;
40367;SDS011;26075;43.320;21.920;2023-07-02T02:39:01;14.00;;;6.32;;
40367;SDS011;26075;43.320;21.920;2023-07-02T02:49:59;11.85;;;5.93;;
40367;SDS011;26075;43.320;21.920;2023-07-02T02:55:05;10.38;;;5.55;;
40367;SDS011;26075;43.320;21.920;2023-07-02T03:00:07;10.65;;;6.00;;
40367;SDS011;26075;43.320;21.920;2023-07-02T03:05:09;12.23;;;6.28;;
40367;SDS011;26075;43.320;21.920;2023-07-02T03:10:10;9.45;;;5.50;;
40367;SDS011;26075;43.320;21.920;2023-07-02T03:15:11;11.88;;;5.93;;
40367;SDS011;26075;43.320;21.920;2023-07-02T03:20:12;19.27;;;6.07;;
40367;SDS011;26075;43.320;21.920;2023-07-02T03:25:13;13.55;;;6.50;;
40367;SDS011;26075;43.320;21.920;2023-07-02T03:30:14;10.52;;;5.35;;
40367;SDS011;26075;43.320;21.920;2023-07-02T03:35:15;16.63;;;6.15;;
40367;SDS011;26075;43.320;21.920;2023-07-02T03:40:17;12.15;;;6.00;;
40367;SDS011;26075;43.320;21.920;2023-07-02T03:45:18;13.07;;;6.40;;
40367;SDS011;26075;43.320;21.920;2023-07-02T03:50:19;10.32;;;5.63;;
40367;SDS011;26075;43.320;21.920;2023-07-02T03:55:20;13.63;;;5.15;;
40367;SDS011;26075;43.320;21.920;2023-07-02T04:00:21;11.57;;;6.00;;
40367;SDS011;26075;43.320;21.920;2023-07-02T04:05:22;14.65;;;6.47;;
40367;SDS011;26075;43.320;21.920;2023-07-02T04:10:23;8.93;;;5.38;;
40367;SDS011;26075;43.320;21.920;2023-07-02T04:15:24;8.70;;;5.70;;
40367;SDS011;26075;43.320;21.920;2023-07-02T04:20:26;13.85;;;6.35;;
40367;SDS011;26075;43.320;21.920;2023-07-02T04:25:28;24.70;;;19.73;;
40367;SDS011;26075;43.320;21.920;2023-07-02T04:30:40;14.02;;;7.70;;
40367;SDS011;26075;43.320;21.920;2023-07-02T04:35:42;9.98;;;5.85;;
40367;SDS011;26075;43.320;21.920;2023-07-02T04:46:05;9.88;;;5.68;;
40367;SDS011;26075;43.320;21.920;2023-07-02T04:51:08;9.90;;;5.15;;
40367;SDS011;26075;43.320;21.920;2023-07-02T04:56:09;9.52;;;5.50;;
40367;SDS011;26075;43.320;21.920;2023-07-02T05:01:10;9.75;;;5.47;;
40367;SDS011;26075;43.320;21.920;2023-07-02T05:06:11;10.52;;;5.47;;
40367;SDS011;26075;43.320;21.920;2023-07-02T05:11:12;8.85;;;5.05;;
40367;SDS011;26075;43.320;21.920;2023-07-02T05:16:13;8.50;;;5.57;;
40367;SDS011;26075;43.320;21.920;2023-07-02T05:21:17;8.18;;;4.90;;
40367;SDS011;26075;43.320;21.920;2023-07-02T05:26:18;9.05;;;4.90;;
40367;SDS011;26075;43.320;21.920;2023-07-02T05:31:19;11.80;;;5.63;;
40367;SDS011;26075;43.320;21.920;2023-07-02T05:36:20;8.32;;;4.65;;
40367;SDS011;26075;43.320;21.920;2023-07-02T05:41:22;9.45;;;5.93;;
40367;SDS011;26075;43.320;21.920;2023-07-02T05:46:23;8.48;;;4.53;;
40367;SDS011;26075;43.320;21.920;2023-07-02T05:51:29;9.20;;;5.10;;
40367;SDS011;26075;43.320;21.920;2023-07-02T05:56:30;10.48;;;5.30;;
40367;SDS011;26075;43.320;21.920;2023-07-02T06:01:32;9.73;;;5.07;;
40367;SDS011;26075;43.320;21.920;2023-07-02T06:06:41;8.20;;;5.28;;
40367;SDS011;26075;43.320;21.920;2023-07-02T06:11:43;8.73;;;4.70;;
40367;SDS011;26075;43.320;21.920;2023-07-02T06:16:44;9.32;;;5.60;;
40367;SDS011;26075;43.320;21.920;2023-07-02T06:21:45;16.60;;;6.18;;
40367;SDS011;26075;43.320;21.920;2023-07-02T06:26:46;11.88;;;5.78;;
40367;SDS011;26075;43.320;21.920;2023-07-02T06:31:47;16.08;;;5.78;;
40367;SDS011;26075;43.320;21.920;2023-07-02T06:36:48;12.48;;;7.50;;
40367;SDS011;26075;43.320;21.920;2023-07-02T06:41:49;8.85;;;5.45;;
40367;SDS011;26075;43.320;21.920;2023-07-02T06:46:50;10.00;;;5.47;;
40367;SDS011;26075;43.320;21.920;2023-07-02T06:51:51;12.80;;;6.43;;
40367;SDS011;26075;43.320;21.920;2023-07-02T06:56:52;12.13;;;5.90;;
40367;SDS011;26075;43.320;21.920;2023-07-02T07:01:53;10.10;;;5.32;;
40367;SDS011;26075;43.320;21.920;2023-07-02T07:06:55;13.10;;;5.93;;
40367;SDS011;26075;43.320;21.920;2023-07-02T07:11:56;13.00;;;6.07;;
40367;SDS011;26075;43.320;21.920;2023-07-02T07:16:57;10.07;;;5.47;;
40367;SDS011;26075;43.320;21.920;2023-07-02T07:21:59;10.10;;;5.85;;
40367;SDS011;26075;43.320;21.920;2023-07-02T07:27:00;12.05;;;7.22;;
40367;SDS011;26075;43.320;21.920;2023-07-02T07:32:03;10.85;;;5.65;;
40367;SDS011;26075;43.320;21.920;2023-07-02T07:37:05;10.68;;;6.00;;
40367;SDS011;26075;43.320;21.920;2023-07-02T07:42:06;10.73;;;5.30;;
40367;SDS011;26075;43.320;21.920;2023-07-02T07:47:07;9.65;;;5.55;;
40367;SDS011;26075;43.320;21.920;2023-07-02T07:52:08;10.27;;;5.20;;
40367;SDS011;26075;43.320;21.920;2023-07-02T07:57:09;14.20;;;6.20;;
40367;SDS011;26075;43.320;21.920;2023-07-02T08:02:10;10.18;;;5.18;;
40367;SDS011;26075;43.320;21.920;2023-07-02T08:07:11;8.63;;;4.75;;
40367;SDS011;26075;43.320;21.920;2023-07-02T08:12:12;10.27;;;5.80;;
40367;SDS011;26075;43.320;21.920;2023-07-02T08:17:13;9.40;;;5.55;;
40367;SDS011;26075;43.320;21.920;2023-07-02T08:22:14;11.10;;;5.30;;
40367;SDS011;26075;43.320;21.920;2023-07-02T08:27:16;9.27;;;5.53;;
40367;SDS011;26075;43.320;21.920;2023-07-02T08:32:19;8.55;;;5.68;;
40367;SDS011;26075;43.320;21.920;2023-07-02T08:37:20;8.15;;;5.25;;
40367;SDS011;26075;43.320;21.920;2023-07-02T08:42:26;10.15;;;5.28;;
40367;SDS011;26075;43.320;21.920;2023-07-02T08:47:29;11.05;;;5.70;;
40367;SDS011;26075;43.320;21.920;2023-07-02T08:52:34;11.00;;;6.60;;
40367;SDS011;26075;43.320;21.920;2023-07-02T08:57:36;11.93;;;6.65;;
40367;SDS011;26075;43.320;21.920;2023-07-02T09:02:43;12.57;;;6.00;;
40367;SDS011;26075;43.320;21.920;2023-07-02T09:07:45;12.20;;;6.72;;
40367;SDS011;26075;43.320;21.920;2023-07-02T09:12:47;12.02;;;5.90;;
40367;SDS011;26075;43.320;21.920;2023-07-02T09:17:48;14.88;;;6.30;;
40367;SDS011;26075;43.320;21.920;2023-07-02T09:22:55;12.23;;;7.25;;
40367;SDS011;26075;43.320;21.920;2023-07-02T09:27:56;11.70;;;7.10;;
40367;SDS011;26075;43.320;21.920;2023-07-02T09:33:05;14.25;;;6.90;;
40367;SDS011;26075;43.320;21.920;2023-07-02T09:38:06;9.88;;;5.60;;
40367;SDS011;26075;43.320;21.920;2023-07-02T09:43:07;12.32;;;7.15;;
40367;SDS011;26075;43.320;21.920;2023-07-02T09:48:09;11.48;;;7.50;;
40367;SDS011;26075;43.320;21.920;2023-07-02T09:53:11;14.80;;;7.50;;
40367;SDS011;26075;43.320;21.920;2023-07-02T09:58:12;10.48;;;6.60;;
40367;SDS011;26075;43.320;21.920;2023-07-02T10:03:14;10.93;;;6.88;;
40367;SDS011;26075;43.320;21.920;2023-07-02T10:08:17;11.13;;;7.60;;
40367;SDS011;26075;43.320;21.920;2023-07-02T10:13:27;11.88;;;7.20;;
40367;SDS011;26075;43.320;21.920;2023-07-02T10:18:28;11.13;;;6.72;;
40367;SDS011;26075;43.320;21.920;2023-07-02T10:23:33;15.85;;;6.88;;
40367;SDS011;26075;43.320;21.920;2023-07-02T10:28:35;10.13;;;6.90;;
40367;SDS011;26075;43.320;21.920;2023-07-02T10:33:36;12.65;;;7.40;;
40367;SDS011;26075;43.320;21.920;2023-07-02T10:38:44;12.05;;;7.05;;
40367;SDS011;26075;43.320;21.920;2023-07-02T10:43:46;13.50;;;7.70;;
40367;SDS011;26075;43.320;21.920;2023-07-02T10:48:50;13.10;;;7.05;;
40367;SDS011;26075;43.320;21.920;2023-07-02T10:53:59;11.40;;;7.30;;
40367;SDS011;26075;43.320;21.920;2023-07-02T10:59:00;11.55;;;7.60;;
40367;SDS011;26075;43.320;21.920;2023-07-02T11:04:03;11.23;;;8.23;;
40367;SDS011;26075;43.320;21.920;2023-07-02T11:09:14;11.50;;;9.50;;
40367;SDS011;26075;43.320;21.920;2023-07-02T11:14:25;15.38;;;13.05;;
40367;SDS011;26075;43.320;21.920;2023-07-02T11:19:27;18.52;;;14.85;;
40367;SDS011;26075;43.320;21.920;2023-07-02T11:24:28;22.80;;;14.20;;
40367;SDS011;26075;43.320;21.920;2023-07-02T11:29:32;15.35;;;13.13;;
40367;SDS011;26075;43.320;21.920;2023-07-02T11:34:33;19.20;;;13.75;;
40367;SDS011;26075;43.320;21.920;2023-07-02T11:39:36;17.98;;;14.35;;
40367;SDS011;26075;43.320;21.920;2023-07-02T11:44:37;17.40;;;13.75;;
40367;SDS011;26075;43.320;21.920;2023-07-02T11:49:38;15.25;;;13.63;;
40367;SDS011;26075;43.320;21.920;2023-07-02T11:54:39;16.25;;;13.00;;
40367;SDS011;26075;43.320;21.920;2023-07-02T11:59:49;18.23;;;12.10;;
40367;SDS011;26075;43.320;21.920;2023-07-02T12:04:52;16.73;;;14.40;;
40367;SDS011;26075;43.320;21.920;2023-07-02T12:09:53;16.10;;;13.50;;
40367;SDS011;26075;43.320;21.920;2023-07-02T12:14:54;14.57;;;12.73;;
40367;SDS011;26075;43.320;21.920;2023-07-02T12:19:56;17.30;;;14.50;;
40367;SDS011;26075;43.320;21.920;2023-07-02T12:24:57;18.60;;;15.98;;
40367;SDS011;26075;43.320;21.920;2023-07-02T12:30:03;18.35;;;14.77;;
40367;SDS011;26075;43.320;21.920;2023-07-02T12:35:04;19.15;;;16.77;;
40367;SDS011;26075;43.320;21.920;2023-07-02T12:40:06;19.35;;;13.75;;
40367;SDS011;26075;43.320;21.920;2023-07-02T12:45:07;16.77;;;12.93;;
40367;SDS011;26075;43.320;21.920;2023-07-02T12:50:11;15.75;;;11.88;;
40367;SDS011;26075;43.320;21.920;2023-07-02T12:55:13;14.20;;;11.77;;
40367;SDS011;26075;43.320;21.920;2023-07-02T13:00:14;15.00;;;12.32;;
40367;SDS011;26075;43.320;21.920;2023-07-02T13:05:15;13.90;;;11.32;;
40367;SDS011;26075;43.320;21.920;2023-07-02T13:10:16;15.20;;;12.65;;
40367;SDS011;26075;43.320;21.920;2023-07-02T13:15:17;15.27;;;12.68;;
40367;SDS011;26075;43.320;21.920;2023-07-02T13:20:18;18.98;;;13.52;;
40367;SDS011;26075;43.320;21.920;2023-07-02T13:25:19;17.60;;;13.90;;
40367;SDS011;26075;43.320;21.920;2023-07-02T13:30:20;16.85;;;13.50;;
40367;SDS011;26075;43.320;21.920;2023-07-02T13:35:38;17.42;;;13.70;;
40367;SDS011;26075;43.320;21.920;2023-07-02T13:40:39;20.38;;;12.80;;
40367;SDS011;26075;43.320;21.920;2023-07-02T13:45:40;18.23;;;13.38;;
40367;SDS011;26075;43.320;21.920;2023-07-02T13:50:41;22.15;;;15.15;;
40367;SDS011;26075;43.320;21.920;2023-07-02T13:55:42;16.48;;;13.90;;
40367;SDS011;26075;43.320;21.920;2023-07-02T14:00:43;18.38;;;12.68;;
40367;SDS011;26075;43.320;21.920;2023-07-02T14:05:44;17.73;;;12.55;;
40367;SDS011;26075;43.320;21.920;2023-07-02T14:10:45;22.20;;;12.10;;
40367;SDS011;26075;43.320;21.920;2023-07-02T14:15:46;15.50;;;11.73;;
40367;SDS011;26075;43.320;21.920;2023-07-02T14:20:47;14.57;;;11.13;;
40367;SDS011;26075;43.320;21.920;2023-07-02T14:25:51;15.27;;;10.20;;
40367;SDS011;26075;43.320;21.920;2023-07-02T14:30:56;14.32;;;10.52;;
40367;SDS011;26075;43.320;21.920;2023-07-02T14:35:57;12.20;;;10.88;;
40367;SDS011;26075;43.320;21.920;2023-07-02T14:41:00;12.23;;;10.07;;
40367;SDS011;26075;43.320;21.920;2023-07-02T14:46:01;12.50;;;9.95;;
40367;SDS011;26075;43.320;21.920;2023-07-02T14:51:04;14.25;;;10.45;;
40367;SDS011;26075;43.320;21.920;2023-07-02T14:56:05;10.93;;;8.93;;
40367;SDS011;26075;43.320;21.920;2023-07-02T15:01:07;14.65;;;10.38;;
40367;SDS011;26075;43.320;21.920;2023-07-02T15:06:12;13.45;;;9.02;;
40367;SDS011;26075;43.320;21.920;2023-07-02T15:11:14;15.02;;;10.70;;
40367;SDS011;26075;43.320;21.920;2023-07-02T15:16:15;15.02;;;10.70;;
40367;SDS011;26075;43.320;21.920;2023-07-02T15:21:17;14.40;;;11.38;;
40367;SDS011;26075;43.320;21.920;2023-07-02T15:26:18;14.27;;;11.68;;
40367;SDS011;26075;43.320;21.920;2023-07-02T15:36:46;19.08;;;15.02;;
40367;SDS011;26075;43.320;21.920;2023-07-02T15:41:47;18.65;;;14.95;;
40367;SDS011;26075;43.320;21.920;2023-07-02T15:46:48;17.00;;;15.20;;
40367;SDS011;26075;43.320;21.920;2023-07-02T15:51:49;17.10;;;15.23;;
40367;SDS011;26075;43.320;21.920;2023-07-02T15:56:50;21.35;;;16.33;;
40367;SDS011;26075;43.320;21.920;2023-07-02T16:01:52;17.75;;;15.55;;
40367;SDS011;26075;43.320;21.920;2023-07-02T16:06:53;19.42;;;14.95;;
40367;SDS011;26075;43.320;21.920;2023-07-02T16:11:57;16.10;;;14.50;;
40367;SDS011;26075;43.320;21.920;2023-07-02T16:16:58;17.90;;;15.05;;
40367;SDS011;26075;43.320;21.920;2023-07-02T16:22:01;18.15;;;15.13;;
40367;SDS011;26075;43.320;21.920;2023-07-02T16:27:06;16.67;;;14.77;;
40367;SDS011;26075;43.320;21.920;2023-07-02T16:32:11;17.00;;;14.73;;
40367;SDS011;26075;43.320;21.920;2023-07-02T16:37:13;14.80;;;13.23;;
40367;SDS011;26075;43.320;21.920;2023-07-02T16:42:14;16.10;;;14.40;;
40367;SDS011;26075;43.320;21.920;2023-07-02T16:47:15;17.17;;;13.40;;
40367;SDS011;26075;43.320;21.920;2023-07-02T16:52:16;17.08;;;13.45;;
40367;SDS011;26075;43.320;21.920;2023-07-02T16:57:17;17.38;;;13.57;;
40367;SDS011;26075;43.320;21.920;2023-07-02T17:02:18;17.98;;;14.27;;
40367;SDS011;26075;43.320;21.920;2023-07-02T17:07:19;16.80;;;13.63;;
40367;SDS011;26075;43.320;21.920;2023-07-02T17:12:28;19.02;;;14.20;;
40367;SDS011;26075;43.320;21.920;2023-07-02T17:17:30;18.42;;;13.90;;
40367;SDS011;26075;43.320;21.920;2023-07-02T17:22:36;19.92;;;13.98;;
40367;SDS011;26075;43.320;21.920;2023-07-02T17:27:37;16.77;;;14.77;;
40367;SDS011;26075;43.320;21.920;2023-07-02T17:32:45;19.02;;;15.40;;
40367;SDS011;26075;43.320;21.920;2023-07-02T17:37:48;20.33;;;15.15;;
40367;SDS011;26075;43.320;21.920;2023-07-02T17:42:50;21.48;;;14.50;;
40367;SDS011;26075;43.320;21.920;2023-07-02T17:47:51;15.82;;;13.65;;
40367;SDS011;26075;43.320;21.920;2023-07-02T17:52:57;17.73;;;15.25;;
40367;SDS011;26075;43.320;21.920;2023-07-02T17:58:03;18.63;;;16.50;;
40367;SDS011;26075;43.320;21.920;2023-07-02T18:03:04;22.05;;;16.50;;
40367;SDS011;26075;43.320;21.920;2023-07-02T18:08:06;22.02;;;16.58;;
40367;SDS011;26075;43.320;21.920;2023-07-02T18:13:07;20.35;;;17.33;;
40367;SDS011;26075;43.320;21.920;2023-07-02T18:18:08;21.58;;;16.65;;
40367;SDS011;26075;43.320;21.920;2023-07-02T18:23:09;21.77;;;17.58;;
40367;SDS011;26075;43.320;21.920;2023-07-02T18:28:11;25.40;;;18.73;;
40367;SDS011;26075;43.320;21.920;2023-07-02T18:33:13;23.35;;;17.95;;
40367;SDS011;26075;43.320;21.920;2023-07-02T18:38:14;21.58;;;18.08;;
40367;SDS011;26075;43.320;21.920;2023-07-02T18:43:16;19.77;;;17.08;;
40367;SDS011;26075;43.320;21.920;2023-07-02T18:48:17;21.05;;;17.02;;
40367;SDS011;26075;43.320;21.920;2023-07-02T18:53:18;23.20;;;16.85;;
40367;SDS011;26075;43.320;21.920;2023-07-02T18:58:19;27.05;;;16.70;;
40367;SDS011;26075;43.320;21.920;2023-07-02T19:03:20;21.38;;;16.65;;
40367;SDS011;26075;43.320;21.920;2023-07-02T19:08:22;19.40;;;16.75;;
40367;SDS011;26075;43.320;21.920;2023-07-02T19:13:23;21.45;;;16.23;;
40367;SDS011;26075;43.320;21.920;2023-07-02T19:18:24;19.27;;;15.80;;
40367;SDS011;26075;43.320;21.920;2023-07-02T19:23:28;19.95;;;16.70;;
40367;SDS011;26075;43.320;21.920;2023-07-02T19:28:33;21.38;;;16.27;;
40367;SDS011;26075;43.320;21.920;2023-07-02T19:33:34;19.50;;;16.65;;
40367;SDS011;26075;43.320;21.920;2023-07-02T19:38:35;19.08;;;15.77;;
40367;SDS011;26075;43.320;21.920;2023-07-02T19:43:36;19.15;;;16.65;;
40367;SDS011;26075;43.320;21.920;2023-07-02T19:48:37;20.38;;;16.63;;
40367;SDS011;26075;43.320;21.920;2023-07-02T19:53:38;20.27;;;17.50;;
40367;SDS011;26075;43.320;21.920;2023-07-02T19:58:39;25.85;;;19.08;;
40367;SDS011;26075;43.320;21.920;2023-07-02T20:03:41;28.15;;;21.08;;
40367;SDS011;26075;43.320;21.920;2023-07-02T20:08:42;21.38;;;17.73;;
40367;SDS011;26075;43.320;21.920;2023-07-02T20:13:43;20.25;;;17.05;;
40367;SDS011;26075;43.320;21.920;2023-07-02T20:18:45;19.40;;;16.40;;
40367;SDS011;26075;43.320;21.920;2023-07-02T20:23:51;21.17;;;16.02;;
40367;SDS011;26075;43.320;21.920;2023-07-02T20:28:53;17.90;;;15.70;;
40367;SDS011;26075;43.320;21.920;2023-07-02T20:33:55;18.23;;;15.88;;
40367;SDS011;26075;43.320;21.920;2023-07-02T20:38:58;22.77;;;17.30;;
40367;SDS011;26075;43.320;21.920;2023-07-02T20:43:59;22.70;;;17.42;;
40367;SDS011;26075;43.320;21.920;2023-07-02T20:49:00;21.20;;;17.20;;
40367;SDS011;26075;43.320;21.920;2023-07-02T20:54:05;19.83;;;17.30;;
40367;SDS011;26075;43.320;21.920;2023-07-02T20:59:06;20.75;;;18.45;;
40367;SDS011;26075;43.320;21.920;2023-07-02T21:04:08;24.55;;;18.83;;
40367;SDS011;26075;43.320;21.920;2023-07-02T21:09:09;19.55;;;16.80;;
40367;SDS011;26075;43.320;21.920;2023-07-02T21:14:11;20.52;;;17.25;;
40367;SDS011;26075;43.320;21.920;2023-07-02T21:19:12;23.10;;;15.88;;
40367;SDS011;26075;43.320;21.920;2023-07-02T21:24:16;17.92;;;16.13;;
40367;SDS011;26075;43.320;21.920;2023-07-02T21:29:17;20.40;;;16.70;;
40367;SDS011;26075;43.320;21.920;2023-07-02T21:34:18;18.73;;;16.15;;
40367;SDS011;26075;43.320;21.920;2023-07-02T21:39:19;20.05;;;16.35;;
40367;SDS011;26075;43.320;21.920;2023-07-02T21:44:20;19.13;;;16.00;;
40367;SDS011;26075;43.320;21.920;2023-07-02T21:49:21;17.60;;;15.80;;
40367;SDS011;26075;43.320;21.920;2023-07-02T21:54:22;25.65;;;17.85;;
40367;SDS011;26075;43.320;21.920;2023-07-02T21:59:35;18.75;;;15.82;;
40367;SDS011;26075;43.320;21.920;2023-07-02T22:04:36;20.42;;;15.93;;
40367;SDS011;26075;43.320;21.920;2023-07-02T22:09:37;19.30;;;16.35;;
40367;SDS011;26075;43.320;21.920;2023-07-02T22:14:38;18.35;;;16.10;;
40367;SDS011;26075;43.320;21.920;2023-07-02T22:19:40;17.85;;;15.95;;
40367;SDS011;26075;43.320;21.920;2023-07-02T22:24:42;20.67;;;16.60;;
40367;SDS011;26075;43.320;21.920;2023-07-02T22:29:49;20.63;;;16.23;;
40367;SDS011;26075;43.320;21.920;2023-07-02T22:34:50;18.92;;;15.32;;
40367;SDS011;26075;43.320;21.920;2023-07-02T22:39:51;19.65;;;16.58;;
40367;SDS011;26075;43.320;21.920;2023-07-02T22:44:52;21.52;;;17.25;;
40367;SDS011;26075;43.320;21.920;2023-07-02T22:50:04;24.85;;;18.23;;
40367;SDS011;26075;43.320;21.920;2023-07-02T22:55:05;24.85;;;17.95;;
40367;SDS011;26075;43.320;21.920;2023-07-02T23:00:09;21.13;;;17.02;;
40367;SDS011;26075;43.320;21.920;2023-07-02T23:05:16;22.00;;;16.42;;
40367;SDS011;26075;43.320;21.920;2023-07-02T23:10:18;19.50;;;16.38;;
40367;SDS011;26075;43.320;21.920;2023-07-02T23:15:20;18.17;;;15.93;;
40367;SDS011;26075;43.320;21.920;2023-07-02T23:20:21;18.65;;;14.30;;
40367;SDS011;26075;43.320;21.920;2023-07-02T23:25:22;19.20;;;16.02;;
40367;SDS011;26075;43.320;21.920;2023-07-02T23:30:25;19.95;;;15.55;;
40367;SDS011;26075;43.320;21.920;2023-07-02T23:35:28;19.63;;;17.00;;
40367;SDS011;26075;43.320;21.920;2023-07-02T23:40:29;20.88;;;15.77;;
40367;SDS011;26075;43.320;21.920;2023-07-02T23:45:30;19.83;;;15.63;;
40367;SDS011;26075;43.320;21.920;2023-07-02T23:50:31;22.77;;;16.73;;
40367;SDS011;26075;43.320;21.920;2023-07-02T23:55:33;20.00;;;15.40;;
